createdAt,value
2023-02-04T00:01:42.088Z,0.60
2023-02-04T00:04:10.048Z,0.40
2023-02-04T00:06:37.876Z,0.50
2023-02-04T00:09:06.434Z,0.40
2023-02-04T00:11:34.302Z,0.40
2023-02-04T00:14:02.227Z,0.40
2023-02-04T00:16:30.162Z,0.40
2023-02-04T00:18:58.095Z,0.70
2023-02-04T00:21:25.976Z,0.40
2023-02-04T00:23:56.459Z,0.40
2023-02-04T00:26:25.234Z,0.50
2023-02-04T00:28:53.144Z,0.30
2023-02-04T00:31:21.242Z,0.50
2023-02-04T00:33:49.190Z,0.80
2023-02-04T00:36:17.099Z,0.70
2023-02-04T00:38:45.175Z,0.80
2023-02-04T00:41:12.995Z,0.90
2023-02-04T00:43:40.813Z,0.40
2023-02-04T00:46:08.687Z,0.40
2023-02-04T00:48:36.594Z,0.40
2023-02-04T00:51:04.556Z,0.30
2023-02-04T00:53:32.498Z,0.40
2023-02-04T00:56:00.516Z,0.40
2023-02-04T00:58:28.391Z,0.40
2023-02-04T01:00:56.379Z,0.30
2023-02-04T01:03:24.457Z,0.30
2023-02-04T01:05:52.452Z,0.40
2023-02-04T01:08:23.069Z,0.40
2023-02-04T01:10:50.981Z,0.50
2023-02-04T01:13:19.145Z,0.70
2023-02-04T01:15:47.183Z,0.50
2023-02-04T01:18:15.239Z,0.70
2023-02-04T01:20:43.120Z,0.40
2023-02-04T01:23:10.995Z,0.70
2023-02-04T01:25:38.809Z,0.50
2023-02-04T01:28:06.841Z,0.30
2023-02-04T01:30:34.820Z,0.30
2023-02-04T01:33:02.678Z,0.30
2023-02-04T01:35:30.786Z,0.40
2023-02-04T01:37:58.625Z,0.20
2023-02-04T01:40:26.782Z,0.50
2023-02-04T01:42:54.729Z,0.70
2023-02-04T01:45:22.650Z,0.80
2023-02-04T01:47:51.196Z,0.30
2023-02-04T01:50:19.199Z,0.30
2023-02-04T01:52:47.318Z,0.40
2023-02-04T01:55:24.141Z,0.40
2023-02-04T01:57:53.389Z,0.30
2023-02-04T02:00:32.319Z,0.20
2023-02-04T02:03:00.976Z,0.10
2023-02-04T02:05:36.495Z,0.20
2023-02-04T02:08:06.964Z,0.10
2023-02-04T02:10:38.188Z,0.20
2023-02-04T02:13:10.969Z,0.30
2023-02-04T02:15:41.765Z,0.40
2023-02-04T02:18:11.120Z,0.30
2023-02-04T02:20:39.185Z,0.20
2023-02-04T02:23:19.098Z,0.20
2023-02-04T02:25:47.894Z,0.20
2023-02-04T02:28:19.966Z,0.30
2023-02-04T02:30:51.956Z,0.30
2023-02-04T02:33:21.565Z,0.60
2023-02-04T02:35:49.863Z,0.10
2023-02-04T02:38:19.854Z,0.10
2023-02-04T02:40:49.615Z,0.20
2023-02-04T02:43:23.070Z,0.10
2023-02-04T02:45:51.850Z,0.10
2023-02-04T02:48:19.955Z,0.10
2023-02-04T02:50:49.215Z,0.00
2023-02-04T02:53:19.707Z,0.00
2023-02-04T02:55:48.919Z,0.00
2023-02-04T02:58:25.902Z,0.10
2023-02-04T03:00:54.910Z,0.10
2023-02-04T03:03:30.347Z,0.10
2023-02-04T03:06:06.554Z,0.10
2023-02-04T03:08:35.701Z,0.10
2023-02-04T03:11:03.870Z,0.20
2023-02-04T03:13:34.203Z,0.10
2023-02-04T03:16:02.283Z,0.10
2023-02-04T03:18:31.430Z,0.20
2023-02-04T03:20:59.363Z,0.10
2023-02-04T03:23:30.161Z,0.00
2023-02-04T03:25:58.153Z,0.00
2023-02-04T03:28:26.171Z,0.10
2023-02-04T03:30:56.169Z,0.00
2023-02-04T03:33:31.581Z,0.20
2023-02-04T03:35:59.857Z,0.10
2023-02-04T03:38:28.071Z,0.00
2023-02-04T03:40:55.932Z,0.00
2023-02-04T03:43:23.921Z,0.00
2023-02-04T03:45:52.076Z,0.00
2023-02-04T03:48:20.011Z,0.10
2023-02-04T03:50:47.862Z,0.10
2023-02-04T03:53:15.917Z,0.10
2023-02-04T03:55:43.800Z,0.20
2023-02-04T03:58:11.649Z,0.10
2023-02-04T04:00:39.737Z,0.00
2023-02-04T04:03:07.663Z,0.20
2023-02-04T04:05:35.613Z,0.20
2023-02-04T04:08:03.568Z,0.30
2023-02-04T04:10:31.783Z,0.40
2023-02-04T04:13:00.001Z,0.30
2023-02-04T04:15:27.929Z,0.30
2023-02-04T04:17:55.835Z,0.20
2023-02-04T04:20:25.605Z,0.20
2023-02-04T04:22:53.860Z,0.30
2023-02-04T04:25:21.746Z,0.00
2023-02-04T04:27:49.847Z,0.10
2023-02-04T04:30:18.239Z,0.10
2023-02-04T04:32:46.326Z,0.20
2023-02-04T04:35:14.397Z,0.20
2023-02-04T04:37:42.262Z,0.20
2023-02-04T04:40:12.911Z,0.10
2023-02-04T04:42:40.878Z,0.20
2023-02-04T04:45:11.765Z,0.20
2023-02-04T04:47:39.605Z,0.10
2023-02-04T04:50:08.038Z,0.10
2023-02-04T04:52:35.918Z,0.30
2023-02-04T04:55:05.738Z,0.20
2023-02-04T04:57:33.579Z,0.10
2023-02-04T05:00:01.553Z,0.30
2023-02-04T05:02:29.360Z,0.20
2023-02-04T05:04:57.274Z,0.20
2023-02-04T05:07:25.351Z,0.30
2023-02-04T05:09:53.278Z,0.20
2023-02-04T05:12:21.203Z,0.20
2023-02-04T05:14:49.130Z,0.30
2023-02-04T05:17:16.979Z,0.30
2023-02-04T05:19:44.860Z,0.40
2023-02-04T05:22:12.751Z,0.20
2023-02-04T05:24:40.662Z,0.20
2023-02-04T05:27:08.566Z,0.10
2023-02-04T05:29:36.428Z,0.20
2023-02-04T05:32:04.694Z,0.20
2023-02-04T05:34:32.583Z,0.10
2023-02-04T05:37:00.422Z,0.20
2023-02-04T05:39:28.406Z,0.20
2023-02-04T05:41:56.270Z,0.30
2023-02-04T05:44:25.475Z,0.20
2023-02-04T05:46:54.618Z,0.10
2023-02-04T05:49:22.460Z,0.40
2023-02-04T05:51:50.391Z,0.60
2023-02-04T05:54:19.589Z,0.30
2023-02-04T05:56:48.088Z,0.20
2023-02-04T05:59:16.074Z,0.20
2023-02-04T06:01:44.300Z,0.40
2023-02-04T06:04:12.267Z,0.50
2023-02-04T06:06:40.180Z,0.20
2023-02-04T06:09:08.218Z,0.20
2023-02-04T06:11:36.164Z,0.50
2023-02-04T06:14:04.266Z,0.40
2023-02-04T06:16:32.151Z,0.20
2023-02-04T06:19:00.124Z,0.40
2023-02-04T06:21:28.058Z,0.20
2023-02-04T06:23:56.141Z,0.20
2023-02-04T06:26:24.119Z,0.30
2023-02-04T06:28:52.020Z,0.30
2023-02-04T06:31:19.978Z,0.30
2023-02-04T06:33:47.846Z,0.30
2023-02-04T06:36:15.677Z,0.20
2023-02-04T06:38:43.595Z,0.20
2023-02-04T06:41:11.640Z,0.20
2023-02-04T06:43:39.489Z,0.20
2023-02-04T06:46:07.382Z,0.20
2023-02-04T06:48:35.304Z,0.30
2023-02-04T06:51:03.304Z,0.50
2023-02-04T06:53:31.403Z,0.30
2023-02-04T06:55:59.241Z,0.10
2023-02-04T06:58:27.093Z,0.20
2023-02-04T07:00:55.156Z,0.50
2023-02-04T07:03:22.984Z,0.40
2023-02-04T07:05:53.427Z,0.10
2023-02-04T07:08:24.130Z,0.30
2023-02-04T07:10:51.957Z,0.20
2023-02-04T07:13:19.850Z,0.30
2023-02-04T07:15:47.913Z,0.30
2023-02-04T07:18:16.429Z,0.20
2023-02-04T07:20:44.278Z,0.30
2023-02-04T07:23:12.514Z,0.30
2023-02-04T07:25:40.526Z,0.70
2023-02-04T07:28:08.640Z,0.50
2023-02-04T07:30:36.825Z,0.40
2023-02-04T07:33:04.999Z,0.20
2023-02-04T07:35:32.868Z,0.20
2023-02-04T07:38:00.895Z,0.30
2023-02-04T07:40:29.304Z,0.40
2023-02-04T07:42:57.381Z,0.40
2023-02-04T07:45:27.307Z,0.60
2023-02-04T07:47:55.159Z,0.40
2023-02-04T07:50:23.119Z,0.20
2023-02-04T07:52:51.233Z,0.40
2023-02-04T07:55:19.337Z,0.30
2023-02-04T07:57:47.325Z,0.30
2023-02-04T08:00:16.550Z,0.30
2023-02-04T08:02:44.589Z,0.50
2023-02-04T08:05:13.155Z,0.30
2023-02-04T08:07:41.366Z,0.40
2023-02-04T08:10:11.403Z,1.00
2023-02-04T08:12:39.279Z,1.30
2023-02-04T08:15:08.851Z,0.80
2023-02-04T08:17:37.860Z,0.70
2023-02-04T08:20:06.238Z,0.60
2023-02-04T08:22:35.240Z,0.30
2023-02-04T08:25:05.470Z,0.50
2023-02-04T08:27:33.331Z,0.70
2023-02-04T08:30:01.184Z,0.40
2023-02-04T08:32:30.320Z,0.60
2023-02-04T08:34:59.651Z,0.40
2023-02-04T08:37:27.790Z,0.40
2023-02-04T08:39:56.408Z,0.20
2023-02-04T08:42:24.496Z,0.80
2023-02-04T08:44:52.342Z,0.30
2023-02-04T08:47:20.295Z,0.50
2023-02-04T08:49:48.153Z,0.30
2023-02-04T08:52:16.025Z,0.30
2023-02-04T08:54:43.924Z,0.70
2023-02-04T08:57:11.883Z,0.40
2023-02-04T08:59:39.857Z,0.40
2023-02-04T09:02:09.967Z,0.10
2023-02-04T09:04:38.057Z,0.40
2023-02-04T09:07:05.952Z,0.50
2023-02-04T09:09:33.953Z,0.30
2023-02-04T09:12:02.103Z,0.50
2023-02-04T09:14:30.127Z,0.30
2023-02-04T09:16:58.037Z,0.50
2023-02-04T09:19:26.305Z,0.40
2023-02-04T09:21:54.784Z,0.50
2023-02-04T09:24:25.664Z,0.40
2023-02-04T09:26:53.643Z,0.60
2023-02-04T09:29:21.664Z,0.30
2023-02-04T09:31:49.584Z,0.40
2023-02-04T09:34:17.558Z,0.40
2023-02-04T09:36:45.887Z,0.40
2023-02-04T09:39:14.204Z,0.50
2023-02-04T09:41:43.104Z,0.50
2023-02-04T09:44:18.148Z,0.40
2023-02-04T09:46:52.383Z,0.30
2023-02-04T09:49:20.624Z,0.40
2023-02-04T09:51:50.487Z,0.30
2023-02-04T09:54:21.584Z,0.20
2023-02-04T09:56:50.791Z,0.20
2023-02-04T09:59:23.248Z,0.10
2023-02-04T10:02:02.895Z,0.20
2023-02-04T10:04:30.972Z,0.30
2023-02-04T10:06:59.116Z,0.30
2023-02-04T10:09:27.354Z,0.30
2023-02-04T10:11:55.442Z,0.40
2023-02-04T10:14:24.510Z,0.30
2023-02-04T10:16:59.370Z,0.30
2023-02-04T10:19:31.128Z,0.20
2023-02-04T10:21:59.541Z,0.20
2023-02-04T10:24:30.884Z,0.30
2023-02-04T10:27:16.746Z,0.40
2023-02-04T10:29:57.361Z,0.20
2023-02-04T10:32:34.490Z,0.30
2023-02-04T10:35:03.910Z,0.20
2023-02-04T10:37:32.361Z,0.20
2023-02-04T10:40:00.461Z,0.40
2023-02-04T10:42:31.351Z,0.20
2023-02-04T10:44:59.298Z,0.30
2023-02-04T10:47:31.607Z,0.10
2023-02-04T10:50:15.705Z,0.30
2023-02-04T10:52:49.679Z,0.30
2023-02-04T10:55:22.572Z,0.50
2023-02-04T10:57:53.653Z,0.50
2023-02-04T11:00:25.444Z,0.40
2023-02-04T11:03:26.252Z,0.40
2023-02-04T11:05:59.229Z,0.40
2023-02-04T11:08:33.942Z,0.70
2023-02-04T11:11:09.837Z,0.90
2023-02-04T11:13:57.313Z,0.70
2023-02-04T11:16:33.068Z,0.80
2023-02-04T11:19:09.852Z,0.50
2023-02-04T11:21:37.661Z,0.40
2023-02-04T11:24:11.889Z,0.40
2023-02-04T11:26:44.223Z,0.30
2023-02-04T11:29:41.744Z,0.30
2023-02-04T11:32:31.970Z,0.50
2023-02-04T11:35:11.096Z,0.20
2023-02-04T11:37:57.583Z,0.40
2023-02-04T11:40:30.847Z,0.50
2023-02-04T11:43:21.090Z,1.10
2023-02-04T11:46:05.455Z,0.60
2023-02-04T11:48:36.946Z,0.60
2023-02-04T11:51:15.467Z,0.50
2023-02-04T11:53:44.034Z,0.50
2023-02-04T11:56:22.923Z,0.60
2023-02-04T11:58:55.552Z,0.50
2023-02-04T12:01:30.572Z,0.50
2023-02-04T12:04:07.335Z,0.40
2023-02-04T12:06:37.640Z,0.40
2023-02-04T12:09:17.946Z,0.60
2023-02-04T12:12:01.617Z,0.40
2023-02-04T12:14:39.208Z,0.60
2023-02-04T12:17:20.200Z,0.30
2023-02-04T12:19:48.273Z,0.50
2023-02-04T12:22:16.121Z,0.50
2023-02-04T12:24:45.297Z,0.60
2023-02-04T12:27:13.330Z,0.50
2023-02-04T12:29:41.261Z,0.30
2023-02-04T12:32:09.503Z,0.40
2023-02-04T12:34:40.436Z,0.20
2023-02-04T12:37:10.246Z,0.40
2023-02-04T12:39:38.109Z,0.40
2023-02-04T12:42:06.729Z,0.60
2023-02-04T12:44:35.990Z,0.90
2023-02-04T12:47:04.137Z,1.10
2023-02-04T12:49:32.095Z,0.80
2023-02-04T12:52:02.445Z,0.60
2023-02-04T12:54:30.345Z,0.60
2023-02-04T12:56:58.536Z,0.50
2023-02-04T12:59:26.547Z,0.90
2023-02-04T13:01:54.629Z,0.70
2023-02-04T13:04:22.582Z,0.40
2023-02-04T13:06:50.791Z,0.40
2023-02-04T13:09:18.762Z,0.40
2023-02-04T13:11:46.671Z,0.50
2023-02-04T13:14:14.863Z,0.80
2023-02-04T13:16:42.790Z,0.40
2023-02-04T13:19:10.757Z,0.70
2023-02-04T13:21:38.739Z,1.00
2023-02-04T13:24:06.726Z,0.70
2023-02-04T13:26:34.568Z,0.50
2023-02-04T13:29:02.968Z,0.50
2023-02-04T13:31:31.043Z,0.60
2023-02-04T13:33:59.046Z,0.50
2023-02-04T13:36:28.324Z,0.40
2023-02-04T13:38:56.805Z,0.40
2023-02-04T13:41:25.013Z,0.70
2023-02-04T13:43:53.040Z,0.30
2023-02-04T13:46:22.762Z,0.60
2023-02-04T13:48:51.079Z,0.60
2023-02-04T13:51:19.373Z,0.60
2023-02-04T13:53:50.279Z,0.70
2023-02-04T13:56:18.328Z,0.60
2023-02-04T13:58:46.392Z,0.40
2023-02-04T14:01:15.337Z,0.40
2023-02-04T14:03:44.074Z,0.60
2023-02-04T14:06:13.290Z,0.60
2023-02-04T14:08:41.667Z,0.70
2023-02-04T14:11:09.933Z,0.80
2023-02-04T14:13:37.932Z,0.90
2023-02-04T14:16:07.763Z,0.60
2023-02-04T14:18:35.939Z,0.70
2023-02-04T14:21:04.130Z,0.60
2023-02-04T14:23:32.164Z,0.60
2023-02-04T14:26:00.299Z,0.30
2023-02-04T14:28:28.265Z,0.50
2023-02-04T14:30:56.254Z,0.50
2023-02-04T14:33:24.428Z,0.50
2023-02-04T14:35:52.358Z,0.30
2023-02-04T14:38:20.208Z,0.60
2023-02-04T14:40:48.183Z,0.50
2023-02-04T14:43:16.319Z,0.90
2023-02-04T14:45:45.122Z,0.70
2023-02-04T14:48:16.266Z,0.40
2023-02-04T14:50:47.350Z,0.80
2023-02-04T14:53:15.597Z,0.50
2023-02-04T14:55:43.486Z,1.10
2023-02-04T14:58:11.826Z,0.90
2023-02-04T15:00:40.088Z,1.00
2023-02-04T15:03:08.430Z,0.60
2023-02-04T15:05:36.610Z,1.60
2023-02-04T15:08:05.900Z,0.80
2023-02-04T15:10:34.151Z,1.10
2023-02-04T15:13:02.872Z,1.10
2023-02-04T15:15:31.416Z,1.30
2023-02-04T15:17:59.682Z,1.20
2023-02-04T15:20:27.862Z,1.20
2023-02-04T15:22:56.616Z,0.60
2023-02-04T15:25:24.901Z,0.80
2023-02-04T15:27:53.062Z,0.70
2023-02-04T15:30:21.085Z,0.80
2023-02-04T15:32:49.040Z,0.60
2023-02-04T15:35:16.929Z,0.50
2023-02-04T15:37:44.748Z,0.20
2023-02-04T15:40:12.934Z,0.40
2023-02-04T15:42:41.333Z,0.70
2023-02-04T15:45:09.890Z,0.30
2023-02-04T15:47:37.970Z,0.50
2023-02-04T15:50:08.901Z,0.60
2023-02-04T15:52:37.817Z,0.40
2023-02-04T15:55:06.386Z,0.80
2023-02-04T15:57:34.222Z,0.50
2023-02-04T16:00:03.524Z,0.40
2023-02-04T16:02:31.546Z,0.50
2023-02-04T16:04:59.458Z,0.40
2023-02-04T16:07:27.475Z,0.50
2023-02-04T16:09:55.431Z,0.40
2023-02-04T16:12:23.352Z,0.40
2023-02-04T16:14:51.233Z,0.70
2023-02-04T16:17:19.232Z,0.60
2023-02-04T16:19:47.393Z,0.50
2023-02-04T16:22:15.333Z,0.60
2023-02-04T16:24:43.161Z,0.90
2023-02-04T16:27:11.087Z,0.50
2023-02-04T16:29:38.924Z,0.50
2023-02-04T16:32:29.693Z,0.70
2023-02-04T16:34:56.936Z,0.70
2023-02-04T16:37:26.824Z,0.50
2023-02-04T16:39:58.276Z,0.60
2023-02-04T16:42:26.938Z,0.90
2023-02-04T16:44:54.773Z,0.80
2023-02-04T16:47:23.174Z,0.90
2023-02-04T16:49:52.019Z,0.90
2023-02-04T16:52:19.997Z,1.10
2023-02-04T16:54:47.889Z,0.90
2023-02-04T16:57:15.799Z,0.90
2023-02-04T16:59:43.720Z,0.90
2023-02-04T17:02:11.720Z,1.10
2023-02-04T17:04:39.943Z,0.80
2023-02-04T17:07:10.273Z,0.40
2023-02-04T17:09:38.660Z,0.90
2023-02-04T17:12:07.025Z,1.00
2023-02-04T17:14:34.935Z,0.80
2023-02-04T17:17:03.295Z,1.20
2023-02-04T17:19:31.375Z,1.10
2023-02-04T17:22:00.524Z,0.80
2023-02-04T17:24:28.727Z,1.10
2023-02-04T17:26:56.634Z,1.00
2023-02-04T17:29:25.216Z,1.10
2023-02-04T17:31:53.684Z,1.20
2023-02-04T17:34:21.851Z,0.70
2023-02-04T17:36:49.779Z,0.50
2023-02-04T17:39:17.735Z,0.40
2023-02-04T17:41:45.812Z,0.70
2023-02-04T17:44:19.199Z,0.70
2023-02-04T17:46:47.072Z,0.50
2023-02-04T17:49:14.990Z,0.50
2023-02-04T17:51:43.410Z,0.50
2023-02-04T17:54:14.207Z,0.50
2023-02-04T17:56:42.150Z,0.30
2023-02-04T17:59:11.303Z,0.70
2023-02-04T18:01:41.600Z,0.80
2023-02-04T18:04:14.306Z,0.60
2023-02-04T18:06:42.256Z,0.70
2023-02-04T18:09:18.826Z,0.60
2023-02-04T18:11:46.757Z,0.70
2023-02-04T18:14:27.478Z,1.20
2023-02-04T18:16:59.723Z,0.80
2023-02-04T18:19:37.042Z,0.90
2023-02-04T18:22:17.971Z,0.90
2023-02-04T18:24:49.038Z,0.70
2023-02-04T18:27:24.621Z,0.60
2023-02-04T18:29:55.973Z,1.00
2023-02-04T18:32:29.680Z,0.90
2023-02-04T18:34:59.604Z,1.00
2023-02-04T18:37:46.486Z,1.00
2023-02-04T18:40:39.575Z,1.00
2023-02-04T18:43:38.316Z,0.90
2023-02-04T18:46:37.203Z,0.80
2023-02-04T18:49:27.102Z,0.50
2023-02-04T18:52:02.182Z,0.90
2023-02-04T18:54:39.237Z,1.10
2023-02-04T18:57:16.243Z,0.90
2023-02-04T18:59:44.279Z,1.40
2023-02-04T19:02:50.729Z,0.90
2023-02-04T19:05:49.348Z,0.80
2023-02-04T19:08:43.027Z,1.10
2023-02-04T19:11:51.413Z,1.20
2023-02-04T19:14:44.655Z,0.90
2023-02-04T19:17:29.701Z,0.90
2023-02-04T19:20:22.978Z,1.10
2023-02-04T19:22:55.203Z,1.20
2023-02-04T19:25:46.950Z,1.30
2023-02-04T19:28:30.180Z,1.20
2023-02-04T19:31:04.645Z,1.10
2023-02-04T19:33:42.733Z,1.20
2023-02-04T19:36:47.494Z,1.20
2023-02-04T19:39:49.670Z,1.20
2023-02-04T19:42:37.969Z,1.10
2023-02-04T19:45:30.794Z,1.30
2023-02-04T19:48:00.396Z,1.00
2023-02-04T19:50:35.163Z,1.00
2023-02-04T19:53:18.231Z,1.70
2023-02-04T19:55:51.963Z,1.30
2023-02-04T19:58:24.421Z,1.40
2023-02-04T20:01:10.859Z,1.20
2023-02-04T20:03:49.710Z,1.30
2023-02-04T20:06:32.183Z,1.00
2023-02-04T20:09:16.828Z,0.90
2023-02-04T20:12:08.411Z,0.80
2023-02-04T20:14:54.969Z,0.70
2023-02-04T20:17:39.275Z,1.40
2023-02-04T20:20:27.845Z,0.60
2023-02-04T20:23:00.615Z,1.00
2023-02-04T20:25:48.802Z,1.10
2023-02-04T20:28:42.849Z,1.40
2023-02-04T20:31:25.720Z,1.30
2023-02-04T20:34:00.288Z,1.70
2023-02-04T20:36:41.763Z,1.50
2023-02-04T20:39:37.975Z,1.70
2023-02-04T20:42:33.574Z,1.90
2023-02-04T20:45:25.634Z,1.60
2023-02-04T20:48:00.546Z,1.10
2023-02-04T20:50:41.298Z,0.90
2023-02-04T20:53:35.962Z,1.10
2023-02-04T20:56:30.909Z,1.00
2023-02-04T20:59:12.894Z,1.20
2023-02-04T21:01:51.460Z,0.90
2023-02-04T21:04:37.223Z,1.10
2023-02-04T21:07:16.909Z,0.90
2023-02-04T21:09:45.093Z,1.00
2023-02-04T21:12:13.078Z,1.10
2023-02-04T21:14:41.819Z,1.40
2023-02-04T21:17:09.858Z,0.70
2023-02-04T21:19:37.705Z,1.50
2023-02-04T21:22:05.623Z,1.20
2023-02-04T21:24:33.902Z,1.00
2023-02-04T21:27:02.057Z,1.10
2023-02-04T21:29:29.880Z,1.30
2023-02-04T21:31:57.956Z,1.70
2023-02-04T21:34:25.854Z,1.30
2023-02-04T21:36:54.568Z,1.00
2023-02-04T21:39:22.537Z,0.90
2023-02-04T21:42:10.195Z,1.50
2023-02-04T21:44:42.449Z,1.60
2023-02-04T21:47:10.402Z,1.60
2023-02-04T21:49:40.719Z,1.20
2023-02-04T21:52:10.714Z,1.30
2023-02-04T21:54:38.556Z,1.00
2023-02-04T21:57:09.671Z,1.20
2023-02-04T21:59:37.554Z,1.10
2023-02-04T22:02:05.390Z,1.20
2023-02-04T22:04:33.334Z,1.10
2023-02-04T22:07:01.242Z,1.30
2023-02-04T22:09:29.123Z,1.10
2023-02-04T22:11:57.402Z,1.10
2023-02-04T22:14:26.340Z,1.40
2023-02-04T22:16:54.193Z,1.40
2023-02-04T22:19:22.060Z,1.50
2023-02-04T22:21:49.935Z,1.30
2023-02-04T22:24:18.230Z,1.60
2023-02-04T22:26:46.038Z,1.50
2023-02-04T22:29:13.894Z,1.40
2023-02-04T22:31:41.773Z,1.60
2023-02-04T22:34:09.691Z,1.70
2023-02-04T22:36:38.362Z,1.30
2023-02-04T22:39:07.685Z,1.20
2023-02-04T22:41:35.514Z,1.20
2023-02-04T22:44:04.155Z,1.00
2023-02-04T22:46:32.109Z,1.00
2023-02-04T22:48:59.974Z,0.90
2023-02-04T22:51:27.989Z,1.30
2023-02-04T22:53:55.794Z,2.10
2023-02-04T22:56:23.699Z,2.20
2023-02-04T22:58:52.916Z,2.90
2023-02-04T23:01:21.099Z,2.30
2023-02-04T23:03:49.556Z,2.70
2023-02-04T23:06:18.204Z,2.90
2023-02-04T23:08:46.932Z,3.90
2023-02-04T23:11:18.511Z,3.70
2023-02-04T23:13:46.478Z,2.60
2023-02-04T23:16:14.454Z,3.10
2023-02-04T23:18:42.620Z,3.60
2023-02-04T23:21:11.260Z,1.90
2023-02-04T23:23:39.360Z,4.40
2023-02-04T23:26:07.768Z,3.20
2023-02-04T23:28:36.089Z,3.00
2023-02-04T23:31:04.029Z,4.60
2023-02-04T23:33:32.060Z,4.30
2023-02-04T23:36:00.167Z,4.80
2023-02-04T23:38:28.064Z,4.30
2023-02-04T23:40:57.258Z,3.20
2023-02-04T23:43:25.223Z,3.30
2023-02-04T23:45:56.726Z,3.10
2023-02-04T23:48:24.708Z,4.00
2023-02-04T23:50:52.696Z,4.90
2023-02-04T23:53:20.504Z,4.50
2023-02-04T23:55:48.437Z,4.80
2023-02-04T23:58:16.275Z,3.80
